sensor_id;sensor_type;location;lat;lon;timestamp;P1;durP1;ratioP1;P2;durP2;ratioP2
68976;SDS011;56029;52.568;13.588;2023-02-28T00:00:10;6.68;;;3.10;;
68976;SDS011;56029;52.568;13.588;2023-02-28T00:02:57;5.90;;;2.87;;
68976;SDS011;56029;52.568;13.588;2023-02-28T00:05:23;5.28;;;2.70;;
68976;SDS011;56029;52.568;13.588;2023-02-28T00:07:50;7.50;;;2.80;;
68976;SDS011;56029;52.568;13.588;2023-02-28T00:10:19;5.63;;;2.70;;
68976;SDS011;56029;52.568;13.588;2023-02-28T00:12:49;6.45;;;2.92;;
68976;SDS011;56029;52.568;13.588;2023-02-28T00:15:15;6.53;;;2.83;;
68976;SDS011;56029;52.568;13.588;2023-02-28T00:17:41;6.63;;;2.87;;
68976;SDS011;56029;52.568;13.588;2023-02-28T00:20:07;6.28;;;2.92;;
68976;SDS011;56029;52.568;13.588;2023-02-28T00:22:41;5.80;;;2.50;;
68976;SDS011;56029;52.568;13.588;2023-02-28T00:25:09;6.95;;;3.20;;
68976;SDS011;56029;52.568;13.588;2023-02-28T00:27:36;6.35;;;2.88;;
68976;SDS011;56029;52.568;13.588;2023-02-28T00:30:03;6.50;;;3.00;;
68976;SDS011;56029;52.568;13.588;2023-02-28T00:32:31;6.85;;;2.88;;
68976;SDS011;56029;52.568;13.588;2023-02-28T00:34:57;6.78;;;3.00;;
68976;SDS011;56029;52.568;13.588;2023-02-28T00:37:22;8.60;;;3.03;;
68976;SDS011;56029;52.568;13.588;2023-02-28T00:39:48;6.43;;;2.80;;
68976;SDS011;56029;52.568;13.588;2023-02-28T00:42:14;6.07;;;2.70;;
68976;SDS011;56029;52.568;13.588;2023-02-28T00:44:39;6.57;;;2.90;;
68976;SDS011;56029;52.568;13.588;2023-02-28T00:47:05;6.60;;;2.90;;
68976;SDS011;56029;52.568;13.588;2023-02-28T00:49:30;7.57;;;3.20;;
68976;SDS011;56029;52.568;13.588;2023-02-28T00:51:56;7.75;;;2.80;;
68976;SDS011;56029;52.568;13.588;2023-02-28T00:54:23;8.25;;;3.25;;
68976;SDS011;56029;52.568;13.588;2023-02-28T00:56:49;7.13;;;2.97;;
68976;SDS011;56029;52.568;13.588;2023-02-28T00:59:15;7.85;;;3.10;;
68976;SDS011;56029;52.568;13.588;2023-02-28T01:01:42;7.15;;;3.08;;
68976;SDS011;56029;52.568;13.588;2023-02-28T01:04:08;7.05;;;3.00;;
68976;SDS011;56029;52.568;13.588;2023-02-28T01:06:34;5.50;;;2.80;;
68976;SDS011;56029;52.568;13.588;2023-02-28T01:09:00;6.87;;;3.07;;
68976;SDS011;56029;52.568;13.588;2023-02-28T01:11:26;8.65;;;3.50;;
68976;SDS011;56029;52.568;13.588;2023-02-28T01:13:52;6.68;;;3.30;;
68976;SDS011;56029;52.568;13.588;2023-02-28T01:16:18;6.37;;;3.00;;
68976;SDS011;56029;52.568;13.588;2023-02-28T01:18:43;6.28;;;2.83;;
68976;SDS011;56029;52.568;13.588;2023-02-28T01:21:10;8.30;;;3.00;;
68976;SDS011;56029;52.568;13.588;2023-02-28T01:23:38;6.07;;;2.90;;
68976;SDS011;56029;52.568;13.588;2023-02-28T01:26:08;6.88;;;3.28;;
68976;SDS011;56029;52.568;13.588;2023-02-28T01:28:36;7.03;;;3.15;;
68976;SDS011;56029;52.568;13.588;2023-02-28T01:31:02;7.40;;;3.20;;
68976;SDS011;56029;52.568;13.588;2023-02-28T01:33:28;6.88;;;3.30;;
68976;SDS011;56029;52.568;13.588;2023-02-28T01:35:58;6.43;;;3.10;;
68976;SDS011;56029;52.568;13.588;2023-02-28T01:38:24;8.15;;;3.40;;
68976;SDS011;56029;52.568;13.588;2023-02-28T01:40:50;6.38;;;3.00;;
68976;SDS011;56029;52.568;13.588;2023-02-28T01:43:26;6.03;;;3.00;;
68976;SDS011;56029;52.568;13.588;2023-02-28T01:45:54;6.63;;;3.00;;
68976;SDS011;56029;52.568;13.588;2023-02-28T01:48:22;8.35;;;3.08;;
68976;SDS011;56029;52.568;13.588;2023-02-28T01:50:52;7.47;;;3.17;;
68976;SDS011;56029;52.568;13.588;2023-02-28T01:53:21;8.05;;;3.60;;
68976;SDS011;56029;52.568;13.588;2023-02-28T01:55:55;7.68;;;3.42;;
68976;SDS011;56029;52.568;13.588;2023-02-28T01:58:21;7.93;;;3.63;;
68976;SDS011;56029;52.568;13.588;2023-02-28T02:00:48;8.82;;;3.55;;
68976;SDS011;56029;52.568;13.588;2023-02-28T02:03:14;7.13;;;3.30;;
68976;SDS011;56029;52.568;13.588;2023-02-28T02:05:47;7.47;;;2.90;;
68976;SDS011;56029;52.568;13.588;2023-02-28T02:08:20;7.05;;;3.00;;
68976;SDS011;56029;52.568;13.588;2023-02-28T02:10:49;8.52;;;3.65;;
68976;SDS011;56029;52.568;13.588;2023-02-28T02:18:53;7.97;;;3.30;;
68976;SDS011;56029;52.568;13.588;2023-02-28T02:21:33;7.30;;;3.38;;
68976;SDS011;56029;52.568;13.588;2023-02-28T02:24:16;6.75;;;3.00;;
68976;SDS011;56029;52.568;13.588;2023-02-28T02:30:12;7.27;;;3.10;;
68976;SDS011;56029;52.568;13.588;2023-02-28T02:32:56;8.02;;;3.30;;
68976;SDS011;56029;52.568;13.588;2023-02-28T02:41:11;9.98;;;3.83;;
68976;SDS011;56029;52.568;13.588;2023-02-28T02:49:06;9.38;;;3.42;;
68976;SDS011;56029;52.568;13.588;2023-02-28T02:51:35;8.05;;;3.40;;
68976;SDS011;56029;52.568;13.588;2023-02-28T02:54:05;10.10;;;3.70;;
68976;SDS011;56029;52.568;13.588;2023-02-28T02:56:35;6.40;;;3.40;;
68976;SDS011;56029;52.568;13.588;2023-02-28T02:59:02;8.48;;;3.80;;
68976;SDS011;56029;52.568;13.588;2023-02-28T03:01:32;8.00;;;3.67;;
68976;SDS011;56029;52.568;13.588;2023-02-28T03:04:04;7.45;;;3.28;;
68976;SDS011;56029;52.568;13.588;2023-02-28T03:06:33;7.13;;;3.08;;
68976;SDS011;56029;52.568;13.588;2023-02-28T03:09:00;6.47;;;3.30;;
68976;SDS011;56029;52.568;13.588;2023-02-28T03:11:26;8.00;;;3.40;;
68976;SDS011;56029;52.568;13.588;2023-02-28T03:13:55;7.75;;;3.50;;
68976;SDS011;56029;52.568;13.588;2023-02-28T03:27:22;8.15;;;3.30;;
68976;SDS011;56029;52.568;13.588;2023-02-28T03:29:56;8.30;;;3.85;;
68976;SDS011;56029;52.568;13.588;2023-02-28T03:35:07;8.02;;;3.75;;
68976;SDS011;56029;52.568;13.588;2023-02-28T03:37:47;8.50;;;3.67;;
68976;SDS011;56029;52.568;13.588;2023-02-28T03:40:20;8.35;;;3.58;;
68976;SDS011;56029;52.568;13.588;2023-02-28T03:42:49;10.25;;;3.97;;
68976;SDS011;56029;52.568;13.588;2023-02-28T03:45:24;9.02;;;3.92;;
68976;SDS011;56029;52.568;13.588;2023-02-28T03:48:02;7.80;;;3.55;;
68976;SDS011;56029;52.568;13.588;2023-02-28T03:50:39;7.88;;;3.40;;
68976;SDS011;56029;52.568;13.588;2023-02-28T03:53:10;9.38;;;4.07;;
68976;SDS011;56029;52.568;13.588;2023-02-28T03:55:41;9.13;;;3.78;;
68976;SDS011;56029;52.568;13.588;2023-02-28T04:01:07;8.43;;;3.60;;
68976;SDS011;56029;52.568;13.588;2023-02-28T04:03:37;8.68;;;3.80;;
68976;SDS011;56029;52.568;13.588;2023-02-28T04:06:04;8.35;;;3.65;;
68976;SDS011;56029;52.568;13.588;2023-02-28T04:08:33;8.00;;;3.65;;
68976;SDS011;56029;52.568;13.588;2023-02-28T04:11:13;10.15;;;3.92;;
68976;SDS011;56029;52.568;13.588;2023-02-28T04:13:44;9.77;;;4.15;;
68976;SDS011;56029;52.568;13.588;2023-02-28T04:16:13;9.48;;;3.85;;
68976;SDS011;56029;52.568;13.588;2023-02-28T04:18:39;8.60;;;3.70;;
68976;SDS011;56029;52.568;13.588;2023-02-28T04:21:05;11.00;;;3.83;;
68976;SDS011;56029;52.568;13.588;2023-02-28T04:23:32;9.80;;;4.28;;
68976;SDS011;56029;52.568;13.588;2023-02-28T04:25:58;12.63;;;4.85;;
68976;SDS011;56029;52.568;13.588;2023-02-28T04:28:23;9.87;;;4.30;;
68976;SDS011;56029;52.568;13.588;2023-02-28T04:31:00;10.88;;;4.05;;
68976;SDS011;56029;52.568;13.588;2023-02-28T04:33:28;8.60;;;3.83;;
68976;SDS011;56029;52.568;13.588;2023-02-28T04:35:59;9.40;;;3.88;;
68976;SDS011;56029;52.568;13.588;2023-02-28T04:38:25;8.80;;;3.85;;
68976;SDS011;56029;52.568;13.588;2023-02-28T04:40:51;10.43;;;4.30;;
68976;SDS011;56029;52.568;13.588;2023-02-28T04:43:22;11.00;;;4.30;;
68976;SDS011;56029;52.568;13.588;2023-02-28T04:45:51;9.60;;;4.18;;
68976;SDS011;56029;52.568;13.588;2023-02-28T04:48:17;9.90;;;4.00;;
68976;SDS011;56029;52.568;13.588;2023-02-28T04:50:42;9.40;;;4.47;;
68976;SDS011;56029;52.568;13.588;2023-02-28T04:53:08;9.80;;;4.20;;
68976;SDS011;56029;52.568;13.588;2023-02-28T04:55:34;9.35;;;4.32;;
68976;SDS011;56029;52.568;13.588;2023-02-28T04:58:00;10.13;;;4.43;;
68976;SDS011;56029;52.568;13.588;2023-02-28T05:00:25;9.38;;;4.45;;
68976;SDS011;56029;52.568;13.588;2023-02-28T05:02:51;10.90;;;4.80;;
68976;SDS011;56029;52.568;13.588;2023-02-28T05:05:17;9.90;;;4.60;;
68976;SDS011;56029;52.568;13.588;2023-02-28T05:07:46;8.77;;;4.40;;
68976;SDS011;56029;52.568;13.588;2023-02-28T05:10:12;9.50;;;4.27;;
68976;SDS011;56029;52.568;13.588;2023-02-28T05:12:37;9.40;;;4.57;;
68976;SDS011;56029;52.568;13.588;2023-02-28T05:15:05;10.17;;;4.50;;
68976;SDS011;56029;52.568;13.588;2023-02-28T05:17:31;10.25;;;4.57;;
68976;SDS011;56029;52.568;13.588;2023-02-28T05:19:57;12.57;;;5.10;;
68976;SDS011;56029;52.568;13.588;2023-02-28T05:22:22;10.20;;;4.80;;
68976;SDS011;56029;52.568;13.588;2023-02-28T05:24:48;11.30;;;4.97;;
68976;SDS011;56029;52.568;13.588;2023-02-28T05:27:13;12.27;;;5.63;;
68976;SDS011;56029;52.568;13.588;2023-02-28T05:29:39;12.95;;;5.50;;
68976;SDS011;56029;52.568;13.588;2023-02-28T05:32:09;12.23;;;5.25;;
68976;SDS011;56029;52.568;13.588;2023-02-28T05:34:36;11.05;;;5.10;;
68976;SDS011;56029;52.568;13.588;2023-02-28T05:37:05;11.93;;;5.00;;
68976;SDS011;56029;52.568;13.588;2023-02-28T05:39:31;12.30;;;5.28;;
68976;SDS011;56029;52.568;13.588;2023-02-28T05:41:56;11.17;;;5.43;;
68976;SDS011;56029;52.568;13.588;2023-02-28T05:44:23;11.02;;;5.38;;
68976;SDS011;56029;52.568;13.588;2023-02-28T05:46:48;10.90;;;4.82;;
68976;SDS011;56029;52.568;13.588;2023-02-28T05:49:14;11.57;;;4.80;;
68976;SDS011;56029;52.568;13.588;2023-02-28T05:51:39;11.90;;;4.97;;
68976;SDS011;56029;52.568;13.588;2023-02-28T05:54:05;10.38;;;5.22;;
68976;SDS011;56029;52.568;13.588;2023-02-28T05:56:31;11.57;;;4.75;;
68976;SDS011;56029;52.568;13.588;2023-02-28T05:58:59;10.60;;;4.70;;
68976;SDS011;56029;52.568;13.588;2023-02-28T06:04:01;13.32;;;4.90;;
68976;SDS011;56029;52.568;13.588;2023-02-28T06:06:31;10.32;;;4.80;;
68976;SDS011;56029;52.568;13.588;2023-02-28T06:08:56;11.32;;;4.90;;
68976;SDS011;56029;52.568;13.588;2023-02-28T06:11:22;12.93;;;5.17;;
68976;SDS011;56029;52.568;13.588;2023-02-28T06:14:00;10.82;;;4.40;;
68976;SDS011;56029;52.568;13.588;2023-02-28T06:16:30;9.93;;;4.85;;
68976;SDS011;56029;52.568;13.588;2023-02-28T06:18:58;12.02;;;5.25;;
68976;SDS011;56029;52.568;13.588;2023-02-28T06:21:25;10.20;;;4.57;;
68976;SDS011;56029;52.568;13.588;2023-02-28T06:23:52;13.98;;;5.03;;
68976;SDS011;56029;52.568;13.588;2023-02-28T06:26:18;11.95;;;5.25;;
68976;SDS011;56029;52.568;13.588;2023-02-28T06:28:44;12.18;;;4.57;;
68976;SDS011;56029;52.568;13.588;2023-02-28T06:31:11;13.27;;;4.85;;
68976;SDS011;56029;52.568;13.588;2023-02-28T06:33:38;11.18;;;5.05;;
68976;SDS011;56029;52.568;13.588;2023-02-28T06:36:08;11.32;;;4.82;;
68976;SDS011;56029;52.568;13.588;2023-02-28T06:38:34;12.73;;;5.53;;
68976;SDS011;56029;52.568;13.588;2023-02-28T06:41:01;11.88;;;5.07;;
68976;SDS011;56029;52.568;13.588;2023-02-28T06:43:28;11.55;;;5.20;;
68976;SDS011;56029;52.568;13.588;2023-02-28T06:45:59;14.48;;;5.68;;
68976;SDS011;56029;52.568;13.588;2023-02-28T06:48:27;13.20;;;5.25;;
68976;SDS011;56029;52.568;13.588;2023-02-28T06:51:01;13.60;;;5.68;;
68976;SDS011;56029;52.568;13.588;2023-02-28T06:53:31;13.73;;;6.32;;
68976;SDS011;56029;52.568;13.588;2023-02-28T06:55:56;12.70;;;5.80;;
68976;SDS011;56029;52.568;13.588;2023-02-28T06:58:22;13.93;;;5.57;;
68976;SDS011;56029;52.568;13.588;2023-02-28T07:00:50;13.07;;;5.37;;
68976;SDS011;56029;52.568;13.588;2023-02-28T07:03:17;12.55;;;5.60;;
68976;SDS011;56029;52.568;13.588;2023-02-28T07:05:43;12.77;;;6.20;;
68976;SDS011;56029;52.568;13.588;2023-02-28T07:08:10;14.77;;;6.30;;
68976;SDS011;56029;52.568;13.588;2023-02-28T07:10:38;16.42;;;7.10;;
68976;SDS011;56029;52.568;13.588;2023-02-28T07:13:07;16.80;;;6.93;;
68976;SDS011;56029;52.568;13.588;2023-02-28T07:15:34;15.13;;;7.20;;
68976;SDS011;56029;52.568;13.588;2023-02-28T07:18:03;16.13;;;7.80;;
68976;SDS011;56029;52.568;13.588;2023-02-28T07:20:29;14.63;;;7.25;;
68976;SDS011;56029;52.568;13.588;2023-02-28T07:22:55;14.07;;;7.20;;
68976;SDS011;56029;52.568;13.588;2023-02-28T07:25:25;16.23;;;7.65;;
68976;SDS011;56029;52.568;13.588;2023-02-28T07:27:51;18.40;;;7.88;;
68976;SDS011;56029;52.568;13.588;2023-02-28T07:30:17;14.53;;;7.17;;
68976;SDS011;56029;52.568;13.588;2023-02-28T07:32:43;17.23;;;8.38;;
68976;SDS011;56029;52.568;13.588;2023-02-28T07:35:09;16.30;;;7.60;;
68976;SDS011;56029;52.568;13.588;2023-02-28T07:37:34;16.33;;;7.43;;
68976;SDS011;56029;52.568;13.588;2023-02-28T07:40:03;14.27;;;7.38;;
68976;SDS011;56029;52.568;13.588;2023-02-28T07:42:34;13.30;;;6.72;;
68976;SDS011;56029;52.568;13.588;2023-02-28T07:45:00;15.48;;;6.97;;
68976;SDS011;56029;52.568;13.588;2023-02-28T07:47:26;12.95;;;6.28;;
68976;SDS011;56029;52.568;13.588;2023-02-28T07:49:54;13.38;;;5.80;;
68976;SDS011;56029;52.568;13.588;2023-02-28T07:52:19;14.20;;;6.07;;
68976;SDS011;56029;52.568;13.588;2023-02-28T07:54:45;11.47;;;6.10;;
68976;SDS011;56029;52.568;13.588;2023-02-28T07:57:10;13.45;;;6.65;;
68976;SDS011;56029;52.568;13.588;2023-02-28T07:59:36;11.40;;;5.70;;
68976;SDS011;56029;52.568;13.588;2023-02-28T08:02:02;12.80;;;6.40;;
68976;SDS011;56029;52.568;13.588;2023-02-28T08:04:27;13.07;;;6.00;;
68976;SDS011;56029;52.568;13.588;2023-02-28T08:06:53;13.35;;;5.55;;
68976;SDS011;56029;52.568;13.588;2023-02-28T08:09:19;13.07;;;5.30;;
68976;SDS011;56029;52.568;13.588;2023-02-28T08:11:44;11.77;;;5.25;;
68976;SDS011;56029;52.568;13.588;2023-02-28T08:14:10;11.80;;;5.77;;
68976;SDS011;56029;52.568;13.588;2023-02-28T08:16:36;11.73;;;5.57;;
68976;SDS011;56029;52.568;13.588;2023-02-28T08:19:02;11.70;;;5.43;;
68976;SDS011;56029;52.568;13.588;2023-02-28T08:21:28;11.75;;;5.47;;
68976;SDS011;56029;52.568;13.588;2023-02-28T08:23:53;11.37;;;5.70;;
68976;SDS011;56029;52.568;13.588;2023-02-28T08:26:19;11.40;;;5.35;;
68976;SDS011;56029;52.568;13.588;2023-02-28T08:28:45;11.40;;;5.35;;
68976;SDS011;56029;52.568;13.588;2023-02-28T08:31:12;11.00;;;5.27;;
68976;SDS011;56029;52.568;13.588;2023-02-28T08:33:39;11.43;;;5.18;;
68976;SDS011;56029;52.568;13.588;2023-02-28T08:36:06;13.45;;;5.70;;
68976;SDS011;56029;52.568;13.588;2023-02-28T08:38:34;13.18;;;5.15;;
68976;SDS011;56029;52.568;13.588;2023-02-28T08:41:01;8.70;;;4.40;;
68976;SDS011;56029;52.568;13.588;2023-02-28T08:43:30;7.93;;;3.47;;
68976;SDS011;56029;52.568;13.588;2023-02-28T08:45:56;6.38;;;3.05;;
68976;SDS011;56029;52.568;13.588;2023-02-28T08:48:23;7.07;;;3.20;;
68976;SDS011;56029;52.568;13.588;2023-02-28T08:50:59;4.77;;;2.37;;
68976;SDS011;56029;52.568;13.588;2023-02-28T08:53:27;7.40;;;3.00;;
68976;SDS011;56029;52.568;13.588;2023-02-28T08:55:57;7.22;;;2.95;;
68976;SDS011;56029;52.568;13.588;2023-02-28T08:58:23;6.95;;;3.03;;
68976;SDS011;56029;52.568;13.588;2023-02-28T09:00:50;7.07;;;3.50;;
68976;SDS011;56029;52.568;13.588;2023-02-28T09:03:15;7.57;;;3.13;;
68976;SDS011;56029;52.568;13.588;2023-02-28T09:05:51;6.57;;;2.90;;
68976;SDS011;56029;52.568;13.588;2023-02-28T09:08:17;6.80;;;3.10;;
68976;SDS011;56029;52.568;13.588;2023-02-28T09:10:43;8.87;;;3.40;;
68976;SDS011;56029;52.568;13.588;2023-02-28T09:13:08;8.07;;;3.00;;
68976;SDS011;56029;52.568;13.588;2023-02-28T09:15:34;5.32;;;2.47;;
68976;SDS011;56029;52.568;13.588;2023-02-28T09:18:02;6.87;;;2.57;;
68976;SDS011;56029;52.568;13.588;2023-02-28T09:20:28;5.97;;;2.53;;
68976;SDS011;56029;52.568;13.588;2023-02-28T09:22:53;5.47;;;2.60;;
68976;SDS011;56029;52.568;13.588;2023-02-28T09:25:19;7.40;;;2.53;;
68976;SDS011;56029;52.568;13.588;2023-02-28T09:27:44;8.90;;;2.50;;
68976;SDS011;56029;52.568;13.588;2023-02-28T09:30:11;6.00;;;2.50;;
68976;SDS011;56029;52.568;13.588;2023-02-28T09:32:37;7.73;;;2.43;;
68976;SDS011;56029;52.568;13.588;2023-02-28T09:35:03;5.45;;;2.00;;
68976;SDS011;56029;52.568;13.588;2023-02-28T09:37:28;4.30;;;2.27;;
68976;SDS011;56029;52.568;13.588;2023-02-28T09:39:54;5.07;;;2.03;;
68976;SDS011;56029;52.568;13.588;2023-02-28T09:42:21;5.43;;;2.20;;
68976;SDS011;56029;52.568;13.588;2023-02-28T09:44:53;4.82;;;1.83;;
68976;SDS011;56029;52.568;13.588;2023-02-28T09:47:32;4.47;;;1.80;;
68976;SDS011;56029;52.568;13.588;2023-02-28T09:53:02;3.53;;;1.90;;
68976;SDS011;56029;52.568;13.588;2023-02-28T09:55:40;4.43;;;1.83;;
68976;SDS011;56029;52.568;13.588;2023-02-28T09:58:14;4.50;;;1.80;;
68976;SDS011;56029;52.568;13.588;2023-02-28T10:00:46;4.45;;;1.90;;
68976;SDS011;56029;52.568;13.588;2023-02-28T10:03:25;2.70;;;1.70;;
68976;SDS011;56029;52.568;13.588;2023-02-28T10:06:00;4.82;;;2.28;;
68976;SDS011;56029;52.568;13.588;2023-02-28T10:11:11;5.97;;;2.20;;
68976;SDS011;56029;52.568;13.588;2023-02-28T10:13:48;3.60;;;2.10;;
68976;SDS011;56029;52.568;13.588;2023-02-28T10:16:29;3.97;;;2.00;;
68976;SDS011;56029;52.568;13.588;2023-02-28T10:18:59;4.07;;;2.10;;
68976;SDS011;56029;52.568;13.588;2023-02-28T10:21:36;3.83;;;1.90;;
68976;SDS011;56029;52.568;13.588;2023-02-28T10:26:45;4.45;;;2.13;;
68976;SDS011;56029;52.568;13.588;2023-02-28T10:29:13;5.07;;;2.05;;
68976;SDS011;56029;52.568;13.588;2023-02-28T10:31:39;4.28;;;2.05;;
68976;SDS011;56029;52.568;13.588;2023-02-28T10:34:05;5.40;;;2.10;;
68976;SDS011;56029;52.568;13.588;2023-02-28T10:36:31;4.40;;;2.30;;
68976;SDS011;56029;52.568;13.588;2023-02-28T10:38:57;7.43;;;2.72;;
68976;SDS011;56029;52.568;13.588;2023-02-28T10:41:29;5.63;;;2.60;;
68976;SDS011;56029;52.568;13.588;2023-02-28T10:44:12;5.45;;;2.50;;
68976;SDS011;56029;52.568;13.588;2023-02-28T10:46:49;5.43;;;2.20;;
68976;SDS011;56029;52.568;13.588;2023-02-28T10:49:22;4.38;;;2.20;;
68976;SDS011;56029;52.568;13.588;2023-02-28T10:51:52;4.72;;;2.20;;
68976;SDS011;56029;52.568;13.588;2023-02-28T10:54:43;4.88;;;2.20;;
68976;SDS011;56029;52.568;13.588;2023-02-28T10:57:11;4.22;;;2.10;;
68976;SDS011;56029;52.568;13.588;2023-02-28T10:59:42;5.60;;;2.43;;
68976;SDS011;56029;52.568;13.588;2023-02-28T11:04:55;4.93;;;2.50;;
68976;SDS011;56029;52.568;13.588;2023-02-28T11:07:22;6.03;;;2.40;;
68976;SDS011;56029;52.568;13.588;2023-02-28T11:09:49;5.38;;;2.63;;
68976;SDS011;56029;52.568;13.588;2023-02-28T11:14:55;6.13;;;2.30;;
68976;SDS011;56029;52.568;13.588;2023-02-28T11:17:29;6.40;;;2.70;;
68976;SDS011;56029;52.568;13.588;2023-02-28T11:20:01;3.63;;;1.93;;
68976;SDS011;56029;52.568;13.588;2023-02-28T11:22:36;5.22;;;2.35;;
68976;SDS011;56029;52.568;13.588;2023-02-28T11:25:21;5.57;;;2.70;;
68976;SDS011;56029;52.568;13.588;2023-02-28T11:27:53;7.80;;;2.70;;
68976;SDS011;56029;52.568;13.588;2023-02-28T11:30:39;5.28;;;2.40;;
68976;SDS011;56029;52.568;13.588;2023-02-28T11:35:59;5.57;;;2.50;;
68976;SDS011;56029;52.568;13.588;2023-02-28T11:38:28;4.60;;;2.30;;
68976;SDS011;56029;52.568;13.588;2023-02-28T11:57:24;5.13;;;2.28;;
68976;SDS011;56029;52.568;13.588;2023-02-28T12:05:47;5.10;;;2.33;;
68976;SDS011;56029;52.568;13.588;2023-02-28T12:08:33;4.75;;;2.33;;
68976;SDS011;56029;52.568;13.588;2023-02-28T12:11:06;6.40;;;2.35;;
68976;SDS011;56029;52.568;13.588;2023-02-28T12:13:50;5.68;;;2.45;;
68976;SDS011;56029;52.568;13.588;2023-02-28T12:16:38;6.55;;;2.55;;
68976;SDS011;56029;52.568;13.588;2023-02-28T12:19:17;6.63;;;2.47;;
68976;SDS011;56029;52.568;13.588;2023-02-28T12:24:29;4.93;;;2.10;;
68976;SDS011;56029;52.568;13.588;2023-02-28T12:27:06;5.00;;;2.10;;
68976;SDS011;56029;52.568;13.588;2023-02-28T12:29:40;4.60;;;2.38;;
68976;SDS011;56029;52.568;13.588;2023-02-28T12:32:25;5.93;;;2.40;;
68976;SDS011;56029;52.568;13.588;2023-02-28T12:34:57;7.72;;;2.30;;
68976;SDS011;56029;52.568;13.588;2023-02-28T12:37:29;4.97;;;2.30;;
68976;SDS011;56029;52.568;13.588;2023-02-28T12:40:03;6.47;;;2.20;;
68976;SDS011;56029;52.568;13.588;2023-02-28T12:42:32;4.82;;;2.40;;
68976;SDS011;56029;52.568;13.588;2023-02-28T12:45:05;8.10;;;2.27;;
68976;SDS011;56029;52.568;13.588;2023-02-28T12:47:38;3.85;;;2.10;;
68976;SDS011;56029;52.568;13.588;2023-02-28T12:50:08;6.45;;;2.20;;
68976;SDS011;56029;52.568;13.588;2023-02-28T12:52:39;4.57;;;2.15;;
68976;SDS011;56029;52.568;13.588;2023-02-28T12:57:49;4.80;;;2.20;;
68976;SDS011;56029;52.568;13.588;2023-02-28T13:00:25;4.75;;;2.10;;
68976;SDS011;56029;52.568;13.588;2023-02-28T13:03:34;5.38;;;2.35;;
68976;SDS011;56029;52.568;13.588;2023-02-28T13:06:20;4.65;;;2.10;;
68976;SDS011;56029;52.568;13.588;2023-02-28T13:09:09;5.03;;;2.17;;
68976;SDS011;56029;52.568;13.588;2023-02-28T13:11:47;5.83;;;2.30;;
68976;SDS011;56029;52.568;13.588;2023-02-28T13:16:58;4.63;;;2.35;;
68976;SDS011;56029;52.568;13.588;2023-02-28T13:19:25;5.20;;;2.58;;
68976;SDS011;56029;52.568;13.588;2023-02-28T13:21:53;5.70;;;2.63;;
68976;SDS011;56029;52.568;13.588;2023-02-28T13:24:36;4.80;;;2.50;;
68976;SDS011;56029;52.568;13.588;2023-02-28T13:29:40;5.03;;;2.33;;
68976;SDS011;56029;52.568;13.588;2023-02-28T13:34:34;5.30;;;2.20;;
68976;SDS011;56029;52.568;13.588;2023-02-28T13:37:30;5.03;;;2.50;;
68976;SDS011;56029;52.568;13.588;2023-02-28T13:42:54;6.55;;;2.60;;
68976;SDS011;56029;52.568;13.588;2023-02-28T13:45:27;5.73;;;2.70;;
68976;SDS011;56029;52.568;13.588;2023-02-28T13:48:01;5.13;;;2.45;;
68976;SDS011;56029;52.568;13.588;2023-02-28T13:50:31;5.20;;;2.35;;
68976;SDS011;56029;52.568;13.588;2023-02-28T13:58:38;4.47;;;2.45;;
68976;SDS011;56029;52.568;13.588;2023-02-28T14:03:57;6.13;;;2.42;;
68976;SDS011;56029;52.568;13.588;2023-02-28T14:06:34;5.65;;;2.70;;
68976;SDS011;56029;52.568;13.588;2023-02-28T14:11:37;8.00;;;3.03;;
68976;SDS011;56029;52.568;13.588;2023-02-28T14:14:04;7.50;;;3.25;;
68976;SDS011;56029;52.568;13.588;2023-02-28T14:19:12;7.00;;;3.30;;
68976;SDS011;56029;52.568;13.588;2023-02-28T14:21:52;7.50;;;2.90;;
68976;SDS011;56029;52.568;13.588;2023-02-28T14:27:37;6.30;;;2.90;;
68976;SDS011;56029;52.568;13.588;2023-02-28T14:30:16;6.78;;;2.78;;
68976;SDS011;56029;52.568;13.588;2023-02-28T14:36:06;7.83;;;3.20;;
68976;SDS011;56029;52.568;13.588;2023-02-28T14:41:37;7.07;;;2.70;;
68976;SDS011;56029;52.568;13.588;2023-02-28T14:46:47;6.32;;;3.20;;
68976;SDS011;56029;52.568;13.588;2023-02-28T14:49:16;7.03;;;2.90;;
68976;SDS011;56029;52.568;13.588;2023-02-28T14:51:45;7.88;;;3.17;;
68976;SDS011;56029;52.568;13.588;2023-02-28T14:54:13;7.32;;;2.80;;
68976;SDS011;56029;52.568;13.588;2023-02-28T14:56:41;7.32;;;2.78;;
68976;SDS011;56029;52.568;13.588;2023-02-28T14:59:24;7.33;;;2.97;;
68976;SDS011;56029;52.568;13.588;2023-02-28T15:02:12;6.68;;;3.33;;
68976;SDS011;56029;52.568;13.588;2023-02-28T15:04:39;5.95;;;2.60;;
68976;SDS011;56029;52.568;13.588;2023-02-28T15:07:10;5.93;;;2.80;;
68976;SDS011;56029;52.568;13.588;2023-02-28T15:09:39;6.60;;;3.10;;
68976;SDS011;56029;52.568;13.588;2023-02-28T15:12:05;6.32;;;2.75;;
68976;SDS011;56029;52.568;13.588;2023-02-28T15:14:31;6.63;;;2.85;;
68976;SDS011;56029;52.568;13.588;2023-02-28T15:17:01;6.00;;;2.97;;
68976;SDS011;56029;52.568;13.588;2023-02-28T15:19:34;5.73;;;2.97;;
68976;SDS011;56029;52.568;13.588;2023-02-28T15:22:04;5.95;;;2.80;;
68976;SDS011;56029;52.568;13.588;2023-02-28T15:24:41;6.63;;;2.50;;
68976;SDS011;56029;52.568;13.588;2023-02-28T15:27:15;8.43;;;3.00;;
68976;SDS011;56029;52.568;13.588;2023-02-28T15:29:50;5.38;;;2.75;;
68976;SDS011;56029;52.568;13.588;2023-02-28T15:32:24;8.00;;;3.10;;
68976;SDS011;56029;52.568;13.588;2023-02-28T15:34:50;5.75;;;3.20;;
68976;SDS011;56029;52.568;13.588;2023-02-28T15:42:41;8.18;;;3.30;;
68976;SDS011;56029;52.568;13.588;2023-02-28T15:45:28;7.80;;;3.50;;
68976;SDS011;56029;52.568;13.588;2023-02-28T15:48:00;11.07;;;4.53;;
68976;SDS011;56029;52.568;13.588;2023-02-28T15:50:27;9.27;;;3.83;;
68976;SDS011;56029;52.568;13.588;2023-02-28T15:52:53;8.40;;;2.92;;
68976;SDS011;56029;52.568;13.588;2023-02-28T15:55:19;7.38;;;3.10;;
68976;SDS011;56029;52.568;13.588;2023-02-28T15:57:48;7.93;;;3.00;;
68976;SDS011;56029;52.568;13.588;2023-02-28T16:00:19;6.80;;;3.10;;
68976;SDS011;56029;52.568;13.588;2023-02-28T16:02:46;6.10;;;2.88;;
68976;SDS011;56029;52.568;13.588;2023-02-28T16:05:25;8.10;;;3.17;;
68976;SDS011;56029;52.568;13.588;2023-02-28T16:07:56;8.57;;;3.47;;
68976;SDS011;56029;52.568;13.588;2023-02-28T16:10:23;8.07;;;3.70;;
68976;SDS011;56029;52.568;13.588;2023-02-28T16:12:52;7.15;;;3.30;;
68976;SDS011;56029;52.568;13.588;2023-02-28T16:15:20;7.13;;;3.40;;
68976;SDS011;56029;52.568;13.588;2023-02-28T16:17:47;6.53;;;3.10;;
68976;SDS011;56029;52.568;13.588;2023-02-28T16:20:14;8.07;;;3.50;;
68976;SDS011;56029;52.568;13.588;2023-02-28T16:22:44;12.32;;;5.60;;
68976;SDS011;56029;52.568;13.588;2023-02-28T16:25:14;16.10;;;7.20;;
68976;SDS011;56029;52.568;13.588;2023-02-28T16:27:45;13.40;;;5.90;;
68976;SDS011;56029;52.568;13.588;2023-02-28T16:30:20;11.88;;;5.38;;
68976;SDS011;56029;52.568;13.588;2023-02-28T16:32:48;11.10;;;5.00;;
68976;SDS011;56029;52.568;13.588;2023-02-28T16:35:15;10.95;;;4.75;;
68976;SDS011;56029;52.568;13.588;2023-02-28T16:37:41;11.95;;;5.30;;
68976;SDS011;56029;52.568;13.588;2023-02-28T16:40:09;11.03;;;4.50;;
68976;SDS011;56029;52.568;13.588;2023-02-28T16:42:46;11.03;;;4.20;;
68976;SDS011;56029;52.568;13.588;2023-02-28T16:45:15;19.30;;;6.78;;
68976;SDS011;56029;52.568;13.588;2023-02-28T16:47:44;24.90;;;9.52;;
68976;SDS011;56029;52.568;13.588;2023-02-28T16:50:14;24.88;;;11.30;;